sensor_id;sensor_type;location;lat;lon;timestamp;pressure;altitude;pressure_sealevel;temperature;humidity
76478;BME280;65309;49.790;18.972;2023-07-16T00:04:39;59677.63;;;-145.46;48.66
76478;BME280;65309;49.790;18.972;2023-07-16T00:09:43;59667.09;;;-145.46;47.35
76478;BME280;65309;49.790;18.972;2023-07-16T00:14:45;59665.00;;;-145.46;47.74
76478;BME280;65309;49.790;18.972;2023-07-16T00:19:47;59658.69;;;-145.46;47.18
76478;BME280;65309;49.790;18.972;2023-07-16T00:24:50;59679.72;;;-145.46;46.80
76478;BME280;65309;49.790;18.972;2023-07-16T00:29:52;59688.13;;;-145.46;46.59
76478;BME280;65309;49.790;18.972;2023-07-16T00:34:55;59681.81;;;-145.46;47.13
76478;BME280;65309;49.790;18.972;2023-07-16T00:39:58;59639.78;;;-145.46;46.69
76478;BME280;65309;49.790;18.972;2023-07-16T00:45:01;59679.72;;;-145.46;47.17
76478;BME280;65309;49.790;18.972;2023-07-16T00:50:04;59665.00;;;-145.46;47.52
76478;BME280;65309;49.790;18.972;2023-07-16T00:55:08;59686.03;;;-145.46;45.83
76478;BME280;65309;49.790;18.972;2023-07-16T01:00:12;59679.72;;;-145.46;45.12
76478;BME280;65309;49.790;18.972;2023-07-16T01:05:14;59652.38;;;-145.46;45.26
76478;BME280;65309;49.790;18.972;2023-07-16T01:10:18;59704.94;;;-145.46;45.81
76478;BME280;65309;49.790;18.972;2023-07-16T01:15:20;59648.19;;;-145.46;45.82
76478;BME280;65309;49.790;18.972;2023-07-16T01:20:22;59681.81;;;-145.46;44.54
76478;BME280;65309;49.790;18.972;2023-07-16T01:25:52;59662.91;;;-145.46;44.84
76478;BME280;65309;49.790;18.972;2023-07-16T01:31:00;59665.00;;;-145.46;44.66
76478;BME280;65309;49.790;18.972;2023-07-16T01:36:03;59686.03;;;-145.46;44.56
76478;BME280;65309;49.790;18.972;2023-07-16T01:41:05;59671.31;;;-145.46;44.97
76478;BME280;65309;49.790;18.972;2023-07-16T01:46:09;59675.50;;;-145.46;44.25
76478;BME280;65309;49.790;18.972;2023-07-16T01:51:11;59646.09;;;-145.46;44.18
76478;BME280;65309;49.790;18.972;2023-07-16T01:56:16;59677.63;;;-145.46;44.81
76478;BME280;65309;49.790;18.972;2023-07-16T02:01:20;59707.03;;;-145.46;43.96
76478;BME280;65309;49.790;18.972;2023-07-16T02:06:22;59688.13;;;-145.46;44.12
76478;BME280;65309;49.790;18.972;2023-07-16T02:11:24;59713.34;;;-145.46;43.43
76478;BME280;65309;49.790;18.972;2023-07-16T02:16:28;59656.59;;;-145.46;43.55
76478;BME280;65309;49.790;18.972;2023-07-16T02:21:30;59646.09;;;-145.46;44.27
76478;BME280;65309;49.790;18.972;2023-07-16T02:26:32;59671.31;;;-145.46;43.08
76478;BME280;65309;49.790;18.972;2023-07-16T02:31:35;59671.31;;;-145.46;43.53
76478;BME280;65309;49.790;18.972;2023-07-16T02:36:37;59660.81;;;-145.46;43.43
76478;BME280;65309;49.790;18.972;2023-07-16T02:41:40;59704.94;;;-145.46;43.53
76478;BME280;65309;49.790;18.972;2023-07-16T02:46:43;59673.41;;;-145.46;43.81
76478;BME280;65309;49.790;18.972;2023-07-16T02:51:46;59688.13;;;-145.46;42.87
76478;BME280;65309;49.790;18.972;2023-07-16T02:56:48;59711.25;;;-145.46;43.52
76478;BME280;65309;49.790;18.972;2023-07-16T03:01:52;59681.81;;;-145.46;43.52
76478;BME280;65309;49.790;18.972;2023-07-16T03:06:54;59686.03;;;-145.46;43.62
76478;BME280;65309;49.790;18.972;2023-07-16T03:11:56;59637.69;;;-145.46;44.99
76478;BME280;65309;49.790;18.972;2023-07-16T03:16:59;59686.03;;;-145.46;45.26
76478;BME280;65309;49.790;18.972;2023-07-16T03:22:02;59646.09;;;-145.46;44.98
76478;BME280;65309;49.790;18.972;2023-07-16T03:27:05;59671.31;;;-145.46;44.05
76478;BME280;65309;49.790;18.972;2023-07-16T03:32:21;59629.28;;;-145.46;43.50
76478;BME280;65309;49.790;18.972;2023-07-16T03:37:23;59641.88;;;-145.46;41.72
76478;BME280;65309;49.790;18.972;2023-07-16T03:42:25;59604.03;;;-145.46;41.07
76478;BME280;65309;49.790;18.972;2023-07-16T03:47:29;59616.66;;;-145.46;40.61
76478;BME280;65309;49.790;18.972;2023-07-16T03:52:31;59612.44;;;-145.46;39.77
76478;BME280;65309;49.790;18.972;2023-07-16T03:57:33;59583.03;;;-145.46;39.67
76478;BME280;65309;49.790;18.972;2023-07-16T04:02:36;59643.97;;;-145.46;41.49
76478;BME280;65309;49.790;18.972;2023-07-16T04:07:39;59620.88;;;-145.46;42.84
76478;BME280;65309;49.790;18.972;2023-07-16T04:12:41;59637.69;;;-145.46;43.73
76478;BME280;65309;49.790;18.972;2023-07-16T04:17:44;59633.47;;;-145.46;44.03
76478;BME280;65309;49.790;18.972;2023-07-16T04:22:46;59629.28;;;-145.46;44.48
76478;BME280;65309;49.790;18.972;2023-07-16T04:27:48;59625.06;;;-145.46;44.46
76478;BME280;65309;49.790;18.972;2023-07-16T04:32:52;59677.63;;;-145.46;44.44
76478;BME280;65309;49.790;18.972;2023-07-16T04:37:54;59654.50;;;-145.46;45.07
76478;BME280;65309;49.790;18.972;2023-07-16T04:42:56;59648.19;;;-145.46;46.25
76478;BME280;65309;49.790;18.972;2023-07-16T04:48:00;59692.31;;;-145.46;45.29
76478;BME280;65309;49.790;18.972;2023-07-16T04:53:02;59675.50;;;-145.46;47.31
76478;BME280;65309;49.790;18.972;2023-07-16T04:58:05;59688.13;;;-145.46;48.85
76478;BME280;65309;49.790;18.972;2023-07-16T05:03:08;59688.13;;;-145.46;49.50
76478;BME280;65309;49.790;18.972;2023-07-16T05:08:11;59683.91;;;-145.46;49.14
76478;BME280;65309;49.790;18.972;2023-07-16T05:13:13;59654.50;;;-145.46;49.62
76478;BME280;65309;49.790;18.972;2023-07-16T05:18:18;59698.63;;;-145.46;49.68
76478;BME280;65309;49.790;18.972;2023-07-16T05:23:20;59698.63;;;-145.46;51.16
76478;BME280;65309;49.790;18.972;2023-07-16T05:28:24;59681.81;;;-145.46;50.55
76478;BME280;65309;49.790;18.972;2023-07-16T05:33:27;59707.03;;;-145.46;51.20
76478;BME280;65309;49.790;18.972;2023-07-16T05:38:29;59662.91;;;-145.46;50.84
76478;BME280;65309;49.790;18.972;2023-07-16T05:43:32;59667.09;;;-145.46;50.13
76478;BME280;65309;49.790;18.972;2023-07-16T05:48:36;59654.50;;;-145.46;49.84
76478;BME280;65309;49.790;18.972;2023-07-16T05:53:38;59646.09;;;-145.46;50.15
76478;BME280;65309;49.790;18.972;2023-07-16T05:58:40;59683.91;;;-145.46;46.40
76478;BME280;65309;49.790;18.972;2023-07-16T06:03:44;59658.69;;;-145.46;47.71
76478;BME280;65309;49.790;18.972;2023-07-16T06:08:46;59650.28;;;-145.46;49.03
76478;BME280;65309;49.790;18.972;2023-07-16T06:13:48;59667.09;;;-145.46;46.23
76478;BME280;65309;49.790;18.972;2023-07-16T06:18:51;59643.97;;;-145.46;45.12
76478;BME280;65309;49.790;18.972;2023-07-16T06:23:54;59683.91;;;-145.46;46.23
76478;BME280;65309;49.790;18.972;2023-07-16T06:28:56;59662.91;;;-145.46;45.35
76478;BME280;65309;49.790;18.972;2023-07-16T06:33:59;59643.97;;;-145.46;45.17
76478;BME280;65309;49.790;18.972;2023-07-16T06:39:01;59671.31;;;-145.46;45.14
76478;BME280;65309;49.790;18.972;2023-07-16T06:44:03;59637.69;;;-145.46;45.12
76478;BME280;65309;49.790;18.972;2023-07-16T06:49:07;59671.31;;;-145.46;45.08
76478;BME280;65309;49.790;18.972;2023-07-16T06:54:09;59631.38;;;-145.46;44.13
76478;BME280;65309;49.790;18.972;2023-07-16T06:59:11;59665.00;;;-145.46;43.96
76478;BME280;65309;49.790;18.972;2023-07-16T07:04:15;59654.50;;;-145.46;43.40
76478;BME280;65309;49.790;18.972;2023-07-16T07:09:17;59662.91;;;-145.46;43.48
76478;BME280;65309;49.790;18.972;2023-07-16T07:14:19;59618.75;;;-145.46;41.33
76478;BME280;65309;49.790;18.972;2023-07-16T07:19:23;59629.28;;;-145.46;41.50
76478;BME280;65309;49.790;18.972;2023-07-16T07:24:25;59610.34;;;-145.46;42.05
76478;BME280;65309;49.790;18.972;2023-07-16T07:29:27;59620.88;;;-145.46;41.49
76478;BME280;65309;49.790;18.972;2023-07-16T07:34:30;59629.28;;;-145.46;42.41
76478;BME280;65309;49.790;18.972;2023-07-16T07:39:32;59616.66;;;-145.46;42.87
76478;BME280;65309;49.790;18.972;2023-07-16T07:44:35;59612.44;;;-145.46;39.60
76478;BME280;65309;49.790;18.972;2023-07-16T07:49:38;59601.94;;;-145.46;39.58
76478;BME280;65309;49.790;18.972;2023-07-16T07:54:40;59608.25;;;-145.46;40.54
76478;BME280;65309;49.790;18.972;2023-07-16T07:59:42;59612.44;;;-145.46;39.58
76478;BME280;65309;49.790;18.972;2023-07-16T08:04:45;59578.81;;;-145.46;38.85
76478;BME280;65309;49.790;18.972;2023-07-16T08:09:48;59593.53;;;-145.46;38.40
76478;BME280;65309;49.790;18.972;2023-07-16T08:14:50;59597.75;;;-145.46;38.00
76478;BME280;65309;49.790;18.972;2023-07-16T08:19:53;59585.13;;;-145.46;38.29
76478;BME280;65309;49.790;18.972;2023-07-16T08:24:56;59549.41;;;-145.46;37.78
76478;BME280;65309;49.790;18.972;2023-07-16T08:29:58;59589.34;;;-145.46;38.32
76478;BME280;65309;49.790;18.972;2023-07-16T08:35:01;59589.34;;;-145.46;37.38
76478;BME280;65309;49.790;18.972;2023-07-16T08:40:04;59545.19;;;-145.46;37.80
76478;BME280;65309;49.790;18.972;2023-07-16T08:45:09;59557.81;;;-145.46;37.52
76478;BME280;65309;49.790;18.972;2023-07-16T08:50:13;59593.53;;;-145.46;37.02
76478;BME280;65309;49.790;18.972;2023-07-16T08:55:16;59562.00;;;-145.46;37.52
76478;BME280;65309;49.790;18.972;2023-07-16T09:00:18;59589.34;;;-145.46;37.83
76478;BME280;65309;49.790;18.972;2023-07-16T09:05:22;59562.00;;;-145.46;36.28
76478;BME280;65309;49.790;18.972;2023-07-16T09:10:40;59574.63;;;-145.46;36.99
76478;BME280;65309;49.790;18.972;2023-07-16T09:15:42;59557.81;;;-145.46;36.56
76478;BME280;65309;49.790;18.972;2023-07-16T09:20:48;59578.81;;;-145.46;38.64
76478;BME280;65309;49.790;18.972;2023-07-16T09:25:50;59566.22;;;-145.46;36.77
76478;BME280;65309;49.790;18.972;2023-07-16T09:30:52;59566.22;;;-145.46;37.82
76478;BME280;65309;49.790;18.972;2023-07-16T09:36:26;59562.00;;;-145.46;37.90
76478;BME280;65309;49.790;18.972;2023-07-16T09:41:47;59524.16;;;-145.46;36.15
76478;BME280;65309;49.790;18.972;2023-07-16T09:46:51;59532.56;;;-145.46;35.52
76478;BME280;65309;49.790;18.972;2023-07-16T09:51:56;59551.50;;;-145.46;35.56
76478;BME280;65309;49.790;18.972;2023-07-16T09:57:00;59519.97;;;-145.46;36.45
76478;BME280;65309;49.790;18.972;2023-07-16T10:02:04;59551.50;;;-145.46;35.64
76478;BME280;65309;49.790;18.972;2023-07-16T10:07:19;59532.56;;;-145.46;35.38
76478;BME280;65309;49.790;18.972;2023-07-16T10:12:24;59549.41;;;-145.46;35.39
76478;BME280;65309;49.790;18.972;2023-07-16T10:17:26;59580.94;;;-145.46;37.43
76478;BME280;65309;49.790;18.972;2023-07-16T10:22:35;59551.50;;;-145.46;37.63
76478;BME280;65309;49.790;18.972;2023-07-16T10:27:38;59553.59;;;-145.46;35.63
76478;BME280;65309;49.790;18.972;2023-07-16T10:32:40;59515.75;;;-145.46;35.29
76478;BME280;65309;49.790;18.972;2023-07-16T10:37:44;59557.81;;;-145.46;34.99
76478;BME280;65309;49.790;18.972;2023-07-16T10:42:46;59511.56;;;-145.46;36.92
76478;BME280;65309;49.790;18.972;2023-07-16T10:47:52;59528.38;;;-145.46;35.63
76478;BME280;65309;49.790;18.972;2023-07-16T10:52:56;59549.41;;;-145.46;37.71
76478;BME280;65309;49.790;18.972;2023-07-16T10:58:03;59583.03;;;-145.46;37.49
76478;BME280;65309;49.790;18.972;2023-07-16T11:03:06;59574.63;;;-145.46;38.97
76478;BME280;65309;49.790;18.972;2023-07-16T11:08:10;59559.91;;;-145.46;39.46
76478;BME280;65309;49.790;18.972;2023-07-16T11:13:12;59591.44;;;-145.46;40.08
76478;BME280;65309;49.790;18.972;2023-07-16T11:18:14;59601.94;;;-145.46;41.00
76478;BME280;65309;49.790;18.972;2023-07-16T11:23:18;59564.09;;;-145.46;37.92
76478;BME280;65309;49.790;18.972;2023-07-16T11:28:20;59572.50;;;-145.46;38.16
76478;BME280;65309;49.790;18.972;2023-07-16T11:33:22;59574.63;;;-145.46;39.54
76478;BME280;65309;49.790;18.972;2023-07-16T11:38:26;59536.78;;;-145.46;37.56
76478;BME280;65309;49.790;18.972;2023-07-16T11:43:28;59545.19;;;-145.46;38.09
76478;BME280;65309;49.790;18.972;2023-07-16T11:48:30;59566.22;;;-145.46;38.61
76478;BME280;65309;49.790;18.972;2023-07-16T11:53:34;59593.53;;;-145.46;41.15
76478;BME280;65309;49.790;18.972;2023-07-16T11:58:40;59574.63;;;-145.46;41.68
76478;BME280;65309;49.790;18.972;2023-07-16T12:03:42;59559.91;;;-145.46;38.43
76478;BME280;65309;49.790;18.972;2023-07-16T12:08:45;59549.41;;;-145.46;37.93
76478;BME280;65309;49.790;18.972;2023-07-16T12:13:47;59585.13;;;-145.46;38.87
76478;BME280;65309;49.790;18.972;2023-07-16T12:18:49;59549.41;;;-145.46;38.86
76478;BME280;65309;49.790;18.972;2023-07-16T12:23:53;59528.38;;;-145.46;37.28
76478;BME280;65309;49.790;18.972;2023-07-16T12:28:55;59526.28;;;-145.46;37.27
76478;BME280;65309;49.790;18.972;2023-07-16T12:33:57;59545.19;;;-145.46;41.03
76478;BME280;65309;49.790;18.972;2023-07-16T12:39:01;59528.38;;;-145.46;40.93
76478;BME280;65309;49.790;18.972;2023-07-16T12:44:03;59541.00;;;-145.46;40.68
76478;BME280;65309;49.790;18.972;2023-07-16T12:49:05;59562.00;;;-145.46;40.56
76478;BME280;65309;49.790;18.972;2023-07-16T12:54:09;59568.31;;;-145.46;39.95
76478;BME280;65309;49.790;18.972;2023-07-16T12:59:11;59564.09;;;-145.46;38.99
76478;BME280;65309;49.790;18.972;2023-07-16T13:04:13;59545.19;;;-145.46;38.70
76478;BME280;65309;49.790;18.972;2023-07-16T13:09:16;59568.31;;;-145.46;39.58
76478;BME280;65309;49.790;18.972;2023-07-16T13:14:18;59587.22;;;-145.46;40.90
76478;BME280;65309;49.790;18.972;2023-07-16T13:19:20;59578.81;;;-145.46;39.94
76478;BME280;65309;49.790;18.972;2023-07-16T13:24:24;59545.19;;;-145.46;39.11
76478;BME280;65309;49.790;18.972;2023-07-16T13:29:28;59532.56;;;-145.46;41.38
76478;BME280;65309;49.790;18.972;2023-07-16T13:34:30;59528.38;;;-145.46;38.52
76478;BME280;65309;49.790;18.972;2023-07-16T13:39:33;59532.56;;;-145.46;38.77
76478;BME280;65309;49.790;18.972;2023-07-16T13:44:35;59498.94;;;-145.46;37.39
76478;BME280;65309;49.790;18.972;2023-07-16T13:49:37;59532.56;;;-145.46;37.56
76478;BME280;65309;49.790;18.972;2023-07-16T13:54:41;59536.78;;;-145.46;38.97
76478;BME280;65309;49.790;18.972;2023-07-16T13:59:43;59545.19;;;-145.46;37.32
76478;BME280;65309;49.790;18.972;2023-07-16T14:04:45;59505.25;;;-145.46;37.56
76478;BME280;65309;49.790;18.972;2023-07-16T14:09:48;59498.94;;;-145.46;39.70
76478;BME280;65309;49.790;18.972;2023-07-16T14:14:51;59519.97;;;-145.46;37.84
76478;BME280;65309;49.790;18.972;2023-07-16T14:19:53;59549.41;;;-145.46;38.35
76478;BME280;65309;49.790;18.972;2023-07-16T14:24:56;59536.78;;;-145.46;38.51
76478;BME280;65309;49.790;18.972;2023-07-16T14:29:59;59549.41;;;-145.46;38.37
76478;BME280;65309;49.790;18.972;2023-07-16T14:35:08;59511.56;;;-145.46;39.02
76478;BME280;65309;49.790;18.972;2023-07-16T14:40:24;59507.34;;;-145.46;38.93
76478;BME280;65309;49.790;18.972;2023-07-16T14:45:27;59515.75;;;-145.46;38.02
76478;BME280;65309;49.790;18.972;2023-07-16T14:50:29;59494.75;;;-145.46;35.93
76478;BME280;65309;49.790;18.972;2023-07-16T14:55:33;59477.94;;;-145.46;36.27
76478;BME280;65309;49.790;18.972;2023-07-16T15:00:35;59532.56;;;-145.46;35.51
76478;BME280;65309;49.790;18.972;2023-07-16T15:05:37;59517.88;;;-145.46;36.68
76478;BME280;65309;49.790;18.972;2023-07-16T15:10:41;59595.63;;;-145.46;37.63
76478;BME280;65309;49.790;18.972;2023-07-16T15:15:47;59580.94;;;-145.46;40.62
76478;BME280;65309;49.790;18.972;2023-07-16T15:20:55;59580.94;;;-145.46;41.53
76478;BME280;65309;49.790;18.972;2023-07-16T15:26:02;59597.75;;;-145.46;47.24
76478;BME280;65309;49.790;18.972;2023-07-16T15:31:06;59570.41;;;-145.46;47.34
76478;BME280;65309;49.790;18.972;2023-07-16T15:36:08;59595.63;;;-145.46;50.86
76478;BME280;65309;49.790;18.972;2023-07-16T15:41:13;59618.75;;;-145.46;52.75
76478;BME280;65309;49.790;18.972;2023-07-16T15:46:16;59650.28;;;-145.46;55.21
76478;BME280;65309;49.790;18.972;2023-07-16T15:51:20;59650.28;;;-145.46;56.45
76478;BME280;65309;49.790;18.972;2023-07-16T15:56:23;59660.81;;;-145.46;58.24
76478;BME280;65309;49.790;18.972;2023-07-16T16:01:26;59637.69;;;-145.46;59.90
76478;BME280;65309;49.790;18.972;2023-07-16T16:06:28;59650.28;;;-145.46;61.77
76478;BME280;65309;49.790;18.972;2023-07-16T16:11:31;59625.06;;;-145.46;60.88
76478;BME280;65309;49.790;18.972;2023-07-16T16:16:34;59673.41;;;-145.46;62.96
76478;BME280;65309;49.790;18.972;2023-07-16T16:21:36;59679.72;;;-145.46;65.16
76478;BME280;65309;49.790;18.972;2023-07-16T16:26:39;59688.13;;;-145.46;65.20
76478;BME280;65309;49.790;18.972;2023-07-16T16:31:41;59658.69;;;-145.46;66.95
76478;BME280;65309;49.790;18.972;2023-07-16T16:36:45;59671.31;;;-145.46;66.30
76478;BME280;65309;49.790;18.972;2023-07-16T16:41:49;59662.91;;;-145.46;66.64
76478;BME280;65309;49.790;18.972;2023-07-16T16:46:51;59618.75;;;-145.46;62.02
76478;BME280;65309;49.790;18.972;2023-07-16T16:51:53;59580.94;;;-145.46;56.68
76478;BME280;65309;49.790;18.972;2023-07-16T16:56:57;59553.59;;;-145.46;53.70
76478;BME280;65309;49.790;18.972;2023-07-16T17:01:59;59585.13;;;-145.46;52.15
76478;BME280;65309;49.790;18.972;2023-07-16T17:07:01;59566.22;;;-145.46;53.20
76478;BME280;65309;49.790;18.972;2023-07-16T17:12:05;59583.03;;;-145.46;51.44
76478;BME280;65309;49.790;18.972;2023-07-16T17:17:08;59585.13;;;-145.46;50.21
76478;BME280;65309;49.790;18.972;2023-07-16T17:22:11;59612.44;;;-145.46;53.89
76478;BME280;65309;49.790;18.972;2023-07-16T17:27:18;59627.16;;;-145.46;57.73
76478;BME280;65309;49.790;18.972;2023-07-16T17:32:20;59688.13;;;-145.46;60.29
76478;BME280;65309;49.790;18.972;2023-07-16T17:37:22;59662.91;;;-145.46;62.56
76478;BME280;65309;49.790;18.972;2023-07-16T17:42:26;59646.09;;;-145.46;64.00
76478;BME280;65309;49.790;18.972;2023-07-16T17:47:28;59662.91;;;-145.46;63.98
76478;BME280;65309;49.790;18.972;2023-07-16T17:52:30;59671.31;;;-145.46;62.54
76478;BME280;65309;49.790;18.972;2023-07-16T17:57:33;59667.09;;;-145.46;61.78
76478;BME280;65309;49.790;18.972;2023-07-16T18:02:35;59669.22;;;-145.46;61.74
76478;BME280;65309;49.790;18.972;2023-07-16T18:07:38;59669.22;;;-145.46;62.09
76478;BME280;65309;49.790;18.972;2023-07-16T18:12:41;59692.31;;;-145.46;63.19
76478;BME280;65309;49.790;18.972;2023-07-16T18:17:43;59700.75;;;-145.46;63.77
76478;BME280;65309;49.790;18.972;2023-07-16T18:22:49;59709.16;;;-145.46;64.81
76478;BME280;65309;49.790;18.972;2023-07-16T18:27:54;59700.75;;;-145.46;66.49
76478;BME280;65309;49.790;18.972;2023-07-16T18:32:57;59675.50;;;-145.46;68.47
76478;BME280;65309;49.790;18.972;2023-07-16T18:37:59;59717.56;;;-145.46;68.10
76478;BME280;65309;49.790;18.972;2023-07-16T18:43:03;59696.53;;;-145.46;68.83
76478;BME280;65309;49.790;18.972;2023-07-16T18:48:06;59700.75;;;-145.46;70.71
76478;BME280;65309;49.790;18.972;2023-07-16T18:53:09;59702.84;;;-145.46;71.42
76478;BME280;65309;49.790;18.972;2023-07-16T18:58:12;59759.59;;;-145.46;71.62
76478;BME280;65309;49.790;18.972;2023-07-16T19:03:14;59700.75;;;-145.46;71.60
76478;BME280;65309;49.790;18.972;2023-07-16T19:08:17;59707.03;;;-145.46;71.67
76478;BME280;65309;49.790;18.972;2023-07-16T19:13:22;59759.59;;;-145.46;72.12
76478;BME280;65309;49.790;18.972;2023-07-16T19:18:24;59707.03;;;-145.46;72.02
76478;BME280;65309;49.790;18.972;2023-07-16T19:23:26;59749.09;;;-145.46;71.79
76478;BME280;65309;49.790;18.972;2023-07-16T19:28:31;59717.56;;;-145.46;72.19
76478;BME280;65309;49.790;18.972;2023-07-16T19:33:33;59753.28;;;-145.46;72.08
76478;BME280;65309;49.790;18.972;2023-07-16T19:38:35;59753.28;;;-145.46;73.09
76478;BME280;65309;49.790;18.972;2023-07-16T19:43:39;59732.28;;;-145.46;74.80
76478;BME280;65309;49.790;18.972;2023-07-16T19:48:41;59742.78;;;-145.46;76.04
76478;BME280;65309;49.790;18.972;2023-07-16T19:53:43;59746.97;;;-145.46;76.71
76478;BME280;65309;49.790;18.972;2023-07-16T19:58:46;59732.28;;;-145.46;77.60
76478;BME280;65309;49.790;18.972;2023-07-16T20:03:48;59751.19;;;-145.46;78.47
76478;BME280;65309;49.790;18.972;2023-07-16T20:08:51;59730.16;;;-145.46;78.60
76478;BME280;65309;49.790;18.972;2023-07-16T20:13:54;59736.47;;;-145.46;79.94
76478;BME280;65309;49.790;18.972;2023-07-16T20:18:57;59768.00;;;-145.46;80.44
76478;BME280;65309;49.790;18.972;2023-07-16T20:23:59;59778.50;;;-145.46;80.69
76478;BME280;65309;49.790;18.972;2023-07-16T20:29:06;59759.59;;;-145.46;80.64
76478;BME280;65309;49.790;18.972;2023-07-16T20:34:08;59784.81;;;-145.46;81.20
76478;BME280;65309;49.790;18.972;2023-07-16T20:39:10;59776.41;;;-145.46;81.37
76478;BME280;65309;49.790;18.972;2023-07-16T20:44:13;59755.38;;;-145.46;81.48
76478;BME280;65309;49.790;18.972;2023-07-16T20:49:16;59757.50;;;-145.46;81.75
76478;BME280;65309;49.790;18.972;2023-07-16T20:54:18;59805.84;;;-145.46;81.73
76478;BME280;65309;49.790;18.972;2023-07-16T20:59:22;59786.91;;;-145.46;82.07
76478;BME280;65309;49.790;18.972;2023-07-16T21:04:24;59780.63;;;-145.46;82.27
76478;BME280;65309;49.790;18.972;2023-07-16T21:09:26;59763.78;;;-145.46;82.64
76478;BME280;65309;49.790;18.972;2023-07-16T21:14:29;59763.78;;;-145.46;83.01
76478;BME280;65309;49.790;18.972;2023-07-16T21:19:31;59763.78;;;-145.46;82.93
76478;BME280;65309;49.790;18.972;2023-07-16T21:24:33;59768.00;;;-145.46;83.09
76478;BME280;65309;49.790;18.972;2023-07-16T21:29:37;59786.91;;;-145.46;83.31
76478;BME280;65309;49.790;18.972;2023-07-16T21:34:39;59797.44;;;-145.46;83.24
76478;BME280;65309;49.790;18.972;2023-07-16T21:39:42;59807.94;;;-145.46;83.22
76478;BME280;65309;49.790;18.972;2023-07-16T21:44:46;59793.22;;;-145.46;83.38
76478;BME280;65309;49.790;18.972;2023-07-16T21:49:48;59776.41;;;-145.46;83.53
76478;BME280;65309;49.790;18.972;2023-07-16T21:54:51;59761.69;;;-145.46;83.73
76478;BME280;65309;49.790;18.972;2023-07-16T21:59:54;59763.78;;;-145.46;83.88
76478;BME280;65309;49.790;18.972;2023-07-16T22:04:56;59786.91;;;-145.46;83.90
76478;BME280;65309;49.790;18.972;2023-07-16T22:09:59;59807.94;;;-145.46;83.68
76478;BME280;65309;49.790;18.972;2023-07-16T22:15:02;59807.94;;;-145.46;83.63
76478;BME280;65309;49.790;18.972;2023-07-16T22:20:06;59768.00;;;-145.46;83.60
76478;BME280;65309;49.790;18.972;2023-07-16T22:25:12;59828.97;;;-145.46;83.89
76478;BME280;65309;49.790;18.972;2023-07-16T22:30:15;59835.28;;;-145.46;84.24
76478;BME280;65309;49.790;18.972;2023-07-16T22:35:18;59791.13;;;-145.46;84.76
76478;BME280;65309;49.790;18.972;2023-07-16T22:40:20;59810.03;;;-145.46;85.10
76478;BME280;65309;49.790;18.972;2023-07-16T22:45:23;59799.53;;;-145.46;85.49
76478;BME280;65309;49.790;18.972;2023-07-16T22:50:25;59831.06;;;-145.46;85.66
76478;BME280;65309;49.790;18.972;2023-07-16T22:55:28;59818.44;;;-145.46;85.98
76478;BME280;65309;49.790;18.972;2023-07-16T23:00:32;59833.16;;;-145.46;86.17
76478;BME280;65309;49.790;18.972;2023-07-16T23:05:35;59793.22;;;-145.46;86.44
76478;BME280;65309;49.790;18.972;2023-07-16T23:10:37;59780.63;;;-145.46;86.68
76478;BME280;65309;49.790;18.972;2023-07-16T23:15:41;59782.72;;;-145.46;87.07
76478;BME280;65309;49.790;18.972;2023-07-16T23:20:43;59847.88;;;-145.46;87.20
76478;BME280;65309;49.790;18.972;2023-07-16T23:25:46;59784.81;;;-145.46;87.62
76478;BME280;65309;49.790;18.972;2023-07-16T23:30:49;59822.66;;;-145.46;87.60
76478;BME280;65309;49.790;18.972;2023-07-16T23:35:51;59860.50;;;-145.46;87.92
76478;BME280;65309;49.790;18.972;2023-07-16T23:40:54;59799.53;;;-145.46;88.02
76478;BME280;65309;49.790;18.972;2023-07-16T23:45:58;59810.03;;;-145.46;87.70
76478;BME280;65309;49.790;18.972;2023-07-16T23:51:00;59818.44;;;-145.46;87.61
76478;BME280;65309;49.790;18.972;2023-07-16T23:56:02;59837.38;;;-145.46;87.38
